Time,TemperatureF,DewpointF,PressureIn,WindDirection,WindDirectionDegrees,WindSpeedMPH,WindSpeedGustMPH,Humidity,HourlyPrecipIn,Conditions,Clouds,dailyrainin,SoftwareType,DateUTC
2013-01-17 00:04:00,31.8,7.9,30.27,NNW,338,4.6,6.0,36,0.00,CLR,,0.00,WeatherDisplay:10.37,2013-01-17 06:04:00,
2013-01-17 00:09:00,31.8,7.9,30.27,NNW,338,4.6,6.0,36,0.00,CLR,,0.00,WeatherDisplay:10.37,2013-01-17 06:09:00,
2013-01-17 00:14:00,32.2,9.4,30.27,NNW,338,4.6,6.0,38,0.00,CLR,,0.00,WeatherDisplay:10.37,2013-01-17 06:14:00,
2013-01-17 00:19:00,32.5,10.9,30.27,NNW,338,4.7,6.0,40,0.00,CLR,,0.00,WeatherDisplay:10.37,2013-01-17 06:19:00,
2013-01-17 00:24:00,32.5,10.9,30.27,NNW,338,4.6,6.0,40,0.00,CLR,,0.00,WeatherDisplay:10.37,2013-01-17 06:24:00,
2013-01-17 00:29:00,32.7,11.0,30.27,NNW,338,4.6,6.0,40,0.00,CLR,,0.00,WeatherDisplay:10.37,2013-01-17 06:29:00,
2013-01-17 00:34:00,32.9,11.2,30.27,NNW,338,4.6,6.0,40,0.00,CLR,,0.00,WeatherDisplay:10.37,2013-01-17 06:34:00,
2013-01-17 00:39:00,32.9,11.2,30.27,NNW,338,4.6,6.0,40,0.00,CLR,,0.00,WeatherDisplay:10.37,2013-01-17 06:39:00,
2013-01-17 00:44:00,32.7,11.0,30.27,NNW,338,4.6,6.0,40,0.00,CLR,,0.00,WeatherDisplay:10.37,2013-01-17 06:44:00,
2013-01-17 00:49:00,32.7,11.0,30.27,NNW,338,4.7,6.0,40,0.00,CLR,,0.00,WeatherDisplay:10.37,2013-01-17 06:49:00,
2013-01-17 00:54:00,32.7,11.0,30.27,NNW,338,4.6,6.0,40,0.00,CLR,,0.00,WeatherDisplay:10.37,2013-01-17 06:54:00,
2013-01-17 00:59:00,32.7,11.0,30.27,NNW,338,4.6,6.0,40,0.00,CLR,,0.00,WeatherDisplay:10.37,2013-01-17 06:59:00,
2013-01-17 01:04:00,32.7,10.4,30.27,NNW,338,4.6,6.0,39,0.00,CLR,,0.00,WeatherDisplay:10.37,2013-01-17 07:04:00,
2013-01-17 01:09:00,32.7,9.9,30.27,NNW,338,4.7,6.0,38,0.00,CLR,,0.00,WeatherDisplay:10.37,2013-01-17 07:09:00,
2013-01-17 01:14:00,32.7,9.9,30.30,NNW,338,4.6,6.0,38,0.00,CLR,,0.00,WeatherDisplay:10.37,2013-01-17 07:14:00,
2013-01-17 01:19:00,32.7,9.9,30.30,NNW,338,4.6,6.0,38,0.00,CLR,,0.00,WeatherDisplay:10.37,2013-01-17 07:19:00,
2013-01-17 01:24:00,32.7,9.3,30.30,NNW,338,4.6,6.0,37,0.00,CLR,,0.00,WeatherDisplay:10.37,2013-01-17 07:24:00,
2013-01-17 01:29:00,32.7,9.3,30.30,NNW,338,4.7,6.0,37,0.00,CLR,,0.00,WeatherDisplay:10.37,2013-01-17 07:29:00,
2013-01-17 01:34:00,32.9,9.4,30.30,NNW,338,4.7,6.0,37,0.00,CLR,,0.00,WeatherDisplay:10.37,2013-01-17 07:34:00,
2013-01-17 01:39:00,32.4,8.3,30.30,NNW,338,4.7,6.0,36,0.00,CLR,,0.00,WeatherDisplay:10.37,2013-01-17 07:39:00,
2013-01-17 01:44:00,32.0,8.0,30.30,NNW,338,4.6,6.0,36,0.00,CLR,,0.00,WeatherDisplay:10.37,2013-01-17 07:44:00,
2013-01-17 01:49:00,31.3,6.8,30.30,NNW,338,4.6,6.0,35,0.00,CLR,,0.00,WeatherDisplay:10.37,2013-01-17 07:49:00,
2013-01-17 01:54:00,31.1,6.6,30.30,NNW,338,4.6,6.0,35,0.00,CLR,,0.00,WeatherDisplay:10.37,2013-01-17 07:54:00,
2013-01-17 01:59:00,30.7,6.3,30.30,NNW,338,4.7,6.0,35,0.00,CLR,,0.00,WeatherDisplay:10.37,2013-01-17 07:59:00,
2013-01-17 02:04:00,30.6,6.1,30.30,NNW,338,4.7,6.0,35,0.00,CLR,,0.00,WeatherDisplay:10.37,2013-01-17 08:04:00,
2013-01-17 02:09:00,30.4,6.6,30.30,NNW,338,4.7,6.0,36,0.00,CLR,,0.00,WeatherDisplay:10.37,2013-01-17 08:09:00,
2013-01-17 02:14:00,30.4,6.6,30.30,NNW,338,4.6,6.0,36,0.00,CLR,,0.00,WeatherDisplay:10.37,2013-01-17 08:14:00,
2013-01-17 02:19:00,30.2,6.4,30.30,NNW,338,4.7,6.0,36,0.00,CLR,,0.00,WeatherDisplay:10.37,2013-01-17 08:19:00,
2013-01-17 02:24:00,30.0,6.2,30.30,NNW,338,4.6,6.0,36,0.00,CLR,,0.00,WeatherDisplay:10.37,2013-01-17 08:24:00,
2013-01-17 02:29:00,30.4,7.2,30.30,NNW,338,4.6,6.0,37,0.00,CLR,,0.00,WeatherDisplay:10.37,2013-01-17 08:29:00,
2013-01-17 02:34:00,30.2,7.0,30.30,NNW,338,4.6,6.0,37,0.00,CLR,,0.00,WeatherDisplay:10.37,2013-01-17 08:34:00,
2013-01-17 02:39:00,30.4,7.2,30.30,NNW,338,4.6,6.0,37,0.00,CLR,,0.00,WeatherDisplay:10.37,2013-01-17 08:39:00,
2013-01-17 02:44:00,30.2,7.0,30.30,NNW,338,4.7,6.0,37,0.00,CLR,,0.00,WeatherDisplay:10.37,2013-01-17 08:44:00,
2013-01-17 02:49:00,30.2,7.0,30.30,NNW,338,4.6,6.0,37,0.00,CLR,,0.00,WeatherDisplay:10.37,2013-01-17 08:49:00,
2013-01-17 02:54:00,30.4,7.2,30.30,NNW,338,4.6,6.0,37,0.00,CLR,,0.00,WeatherDisplay:10.37,2013-01-17 08:54:00,
2013-01-17 02:59:00,30.2,7.0,30.30,NNW,338,4.6,6.0,37,0.00,CLR,,0.00,WeatherDisplay:10.37,2013-01-17 08:59:00,
2013-01-17 03:04:00,30.4,7.2,30.30,NNW,338,4.7,6.0,37,0.00,CLR,,0.00,WeatherDisplay:10.37,2013-01-17 09:04:00,
2013-01-17 03:09:00,30.6,7.9,30.30,NNW,338,4.6,6.0,38,0.00,CLR,,0.00,WeatherDisplay:10.37,2013-01-17 09:09:00,
2013-01-17 03:14:00,30.4,7.2,30.30,NNW,338,4.6,6.0,37,0.00,CLR,,0.00,WeatherDisplay:10.37,2013-01-17 09:14:00,
2013-01-17 03:19:00,30.2,7.0,30.30,NNW,338,4.6,6.0,37,0.00,CLR,,0.00,WeatherDisplay:10.37,2013-01-17 09:19:00,
2013-01-17 03:24:00,29.8,6.7,30.30,NNW,338,4.7,6.0,37,0.00,CLR,,0.00,WeatherDisplay:10.37,2013-01-17 09:24:00,
2013-01-17 03:29:00,29.5,5.8,30.30,NNW,338,4.6,6.0,36,0.00,CLR,,0.00,WeatherDisplay:10.37,2013-01-17 09:29:00,
2013-01-17 03:34:00,29.5,6.4,30.30,NNW,338,4.6,6.0,37,0.00,CLR,,0.00,WeatherDisplay:10.37,2013-01-17 09:34:00,
2013-01-17 03:39:00,29.7,6.5,30.30,NNW,338,4.6,6.0,37,0.00,CLR,,0.00,WeatherDisplay:10.37,2013-01-17 09:39:00,
2013-01-17 03:44:00,29.3,6.2,30.33,NNW,338,4.6,6.0,37,0.00,CLR,,0.00,WeatherDisplay:10.37,2013-01-17 09:44:00,
2013-01-17 03:49:00,29.5,6.4,30.33,NNW,338,4.6,6.0,37,0.00,CLR,,0.00,WeatherDisplay:10.37,2013-01-17 09:49:00,
2013-01-17 03:54:00,29.7,7.1,30.33,NNW,338,4.6,6.0,38,0.00,CLR,,0.00,WeatherDisplay:10.37,2013-01-17 09:54:00,
2013-01-17 04:00:00,30.4,7.8,30.33,NNW,338,4.7,6.0,38,0.00,CLR,,0.00,WeatherDisplay:10.37,2013-01-17 10:00:00,
2013-01-17 04:05:00,30.7,9.2,30.33,NNW,338,4.6,6.0,40,0.00,CLR,,0.00,WeatherDisplay:10.37,2013-01-17 10:05:00,
2013-01-17 04:10:00,30.9,9.4,30.33,NNW,338,4.6,6.0,40,0.00,CLR,,0.00,WeatherDisplay:10.37,2013-01-17 10:10:00,
2013-01-17 04:15:00,30.9,8.8,30.33,NNW,338,4.7,6.0,39,0.00,CLR,,0.00,WeatherDisplay:10.37,2013-01-17 10:15:00,
2013-01-17 04:20:00,30.7,8.1,30.33,NNW,338,4.6,6.0,38,0.00,CLR,,0.00,WeatherDisplay:10.37,2013-01-17 10:20:00,
2013-01-17 04:25:00,30.6,7.9,30.33,NNW,338,4.6,6.0,38,0.00,CLR,,0.00,WeatherDisplay:10.37,2013-01-17 10:25:00,
2013-01-17 04:30:00,30.4,7.8,30.33,NNW,338,4.6,6.0,38,0.00,CLR,,0.00,WeatherDisplay:10.37,2013-01-17 10:30:00,
2013-01-17 04:35:00,30.2,7.6,30.33,NNW,338,4.7,6.0,38,0.00,CLR,,0.00,WeatherDisplay:10.37,2013-01-17 10:35:00,
2013-01-17 04:40:00,30.2,7.6,30.33,NNW,338,4.7,6.0,38,0.00,CLR,,0.00,WeatherDisplay:10.37,2013-01-17 10:40:00,
2013-01-17 04:45:00,30.0,7.4,30.33,NNW,338,4.6,6.0,38,0.00,CLR,,0.00,WeatherDisplay:10.37,2013-01-17 10:45:00,
2013-01-17 04:50:00,30.0,7.4,30.33,NNW,338,4.6,6.0,38,0.00,CLR,,0.00,WeatherDisplay:10.37,2013-01-17 10:50:00,
2013-01-17 04:55:00,30.0,7.4,30.33,NNW,338,4.6,6.0,38,0.00,CLR,,0.00,WeatherDisplay:10.37,2013-01-17 10:55:00,
2013-01-17 05:00:00,30.2,7.6,30.36,NNW,338,4.7,6.0,38,0.00,CLR,,0.00,WeatherDisplay:10.37,2013-01-17 11:00:00,
2013-01-17 05:05:00,30.7,8.7,30.36,NNW,338,4.6,6.0,39,0.00,CLR,,0.00,WeatherDisplay:10.37,2013-01-17 11:05:00,
2013-01-17 05:10:00,30.4,7.8,30.36,NNW,338,4.7,6.0,38,0.00,CLR,,0.00,WeatherDisplay:10.37,2013-01-17 11:10:00,
2013-01-17 05:15:00,30.2,7.6,30.33,NNW,338,4.6,6.0,38,0.00,CLR,,0.00,WeatherDisplay:10.37,2013-01-17 11:15:00,
2013-01-17 05:20:00,30.2,7.6,30.33,NNW,338,4.6,6.0,38,0.00,CLR,,0.00,WeatherDisplay:10.37,2013-01-17 11:20:00,
2013-01-17 05:25:00,30.2,7.6,30.33,NNW,338,4.7,6.0,38,0.00,CLR,,0.00,WeatherDisplay:10.37,2013-01-17 11:25:00,
2013-01-17 05:30:00,30.6,7.9,30.30,NNW,338,4.7,6.0,38,0.00,CLR,,0.00,WeatherDisplay:10.37,2013-01-17 11:30:00,
2013-01-17 05:35:00,30.9,8.2,30.30,NNW,338,4.6,6.0,38,0.00,CLR,,0.00,WeatherDisplay:10.37,2013-01-17 11:35:00,
2013-01-17 05:40:00,31.5,8.7,30.30,NNW,338,4.6,6.0,38,0.00,CLR,,0.00,WeatherDisplay:10.37,2013-01-17 11:40:00,
2013-01-17 05:45:00,31.5,8.7,30.33,NNW,338,4.7,6.0,38,0.00,CLR,,0.00,WeatherDisplay:10.37,2013-01-17 11:45:00,
2013-01-17 05:50:00,31.5,8.1,30.33,NNW,338,4.7,6.0,37,0.00,CLR,,0.00,WeatherDisplay:10.37,2013-01-17 11:50:00,
2013-01-17 05:55:00,31.3,7.4,30.33,NNW,338,4.6,6.0,36,0.00,CLR,,0.00,WeatherDisplay:10.37,2013-01-17 11:55:00,
2013-01-17 06:00:00,31.1,7.2,30.30,NNW,338,4.6,6.0,36,0.00,CLR,,0.00,WeatherDisplay:10.37,2013-01-17 12:00:00,
2013-01-17 06:05:00,31.1,6.6,30.30,NNW,338,4.7,6.0,35,0.00,CLR,,0.00,WeatherDisplay:10.37,2013-01-17 12:05:00,
2013-01-17 06:10:00,31.3,6.8,30.30,NNW,338,4.7,6.0,35,0.00,CLR,,0.00,WeatherDisplay:10.37,2013-01-17 12:10:00,
2013-01-17 06:15:00,32.0,7.4,30.33,NNW,338,4.6,6.0,35,0.00,CLR,,0.00,WeatherDisplay:10.37,2013-01-17 12:15:00,
2013-01-17 06:20:00,31.6,6.4,30.33,NNW,338,4.7,6.0,34,0.00,CLR,,0.00,WeatherDisplay:10.37,2013-01-17 12:20:00,
2013-01-17 06:25:00,31.1,6.0,30.33,NNW,338,4.6,6.0,34,0.00,CLR,,0.00,WeatherDisplay:10.37,2013-01-17 12:25:00,
2013-01-17 06:30:00,30.6,4.8,30.33,NNW,338,4.6,6.0,33,0.00,CLR,,0.00,WeatherDisplay:10.37,2013-01-17 12:30:00,
2013-01-17 06:35:00,30.4,4.7,30.33,NNW,338,4.6,6.0,33,0.00,CLR,,0.00,WeatherDisplay:10.37,2013-01-17 12:35:00,
2013-01-17 06:40:00,30.7,5.6,30.33,NNW,338,4.6,6.0,34,0.00,CLR,,0.00,WeatherDisplay:10.37,2013-01-17 12:40:00,
2013-01-17 06:45:00,31.1,6.0,30.36,NNW,338,4.7,6.0,34,0.00,CLR,,0.00,WeatherDisplay:10.37,2013-01-17 12:45:00,
2013-01-17 06:50:00,30.7,5.6,30.36,NNW,338,4.6,6.0,34,0.00,CLR,,0.00,WeatherDisplay:10.37,2013-01-17 12:50:00,
2013-01-17 06:55:00,30.6,5.5,30.36,NNW,338,4.6,6.0,34,0.00,CLR,,0.00,WeatherDisplay:10.37,2013-01-17 12:55:00,
2013-01-17 07:00:00,30.7,5.6,30.36,NNW,338,4.7,6.0,34,0.00,CLR,,0.00,WeatherDisplay:10.37,2013-01-17 13:00:00,
2013-01-17 07:05:00,30.9,5.8,30.36,NNW,338,4.6,6.0,34,0.00,CLR,,0.00,WeatherDisplay:10.37,2013-01-17 13:05:00,
2013-01-17 07:10:00,30.6,5.5,30.36,NNW,338,4.6,6.0,34,0.00,CLR,,0.00,WeatherDisplay:10.37,2013-01-17 13:10:00,
2013-01-17 07:15:00,30.4,5.3,30.39,NNW,338,4.6,6.0,34,0.00,CLR,,0.00,WeatherDisplay:10.37,2013-01-17 13:15:00,
2013-01-17 07:20:00,30.2,5.2,30.39,NNW,338,4.6,6.0,34,0.00,CLR,,0.00,WeatherDisplay:10.37,2013-01-17 13:20:00,
2013-01-17 07:25:00,30.2,5.8,30.39,NNW,338,4.7,6.0,35,0.00,CLR,,0.00,WeatherDisplay:10.37,2013-01-17 13:25:00,
2013-01-17 07:30:00,30.2,5.8,30.39,NNW,338,4.6,6.0,35,0.00,CLR,,0.00,WeatherDisplay:10.37,2013-01-17 13:30:00,
2013-01-17 07:35:00,30.7,6.3,30.39,NNW,338,4.7,6.0,35,0.00,CLR,,0.00,WeatherDisplay:10.37,2013-01-17 13:35:00,
2013-01-17 07:40:00,32.0,8.0,30.39,NNW,338,4.6,6.0,36,0.00,CLR,,0.00,WeatherDisplay:10.37,2013-01-17 13:40:00,
2013-01-17 07:45:00,33.3,9.8,30.39,NNW,338,4.6,6.0,37,0.00,CLR,,0.00,WeatherDisplay:10.37,2013-01-17 13:45:00,
2013-01-17 07:50:00,34.2,10.6,30.39,NNW,338,4.7,6.0,37,0.00,CLR,,0.00,WeatherDisplay:10.37,2013-01-17 13:50:00,
2013-01-17 07:55:00,35.6,12.5,30.39,NNW,338,4.6,6.0,38,0.00,CLR,,0.00,WeatherDisplay:10.37,2013-01-17 13:55:00,
2013-01-17 08:00:00,37.0,13.7,30.36,NNW,338,4.6,6.0,38,0.00,CLR,,0.00,WeatherDisplay:10.37,2013-01-17 14:00:00,
2013-01-17 08:05:00,37.9,14.6,30.36,NNW,338,4.6,6.0,38,0.00,CLR,,0.00,WeatherDisplay:10.37,2013-01-17 14:05:00,
2013-01-17 08:10:00,38.1,12.8,30.36,NNW,338,4.6,6.0,35,0.00,CLR,,0.00,WeatherDisplay:10.37,2013-01-17 14:10:00,
2013-01-17 08:15:00,38.8,12.1,30.39,NNW,338,4.6,6.0,33,0.00,CLR,,0.00,WeatherDisplay:10.37,2013-01-17 14:15:00,
2013-01-17 08:20:00,39.4,11.2,30.39,NNW,338,4.7,6.0,31,0.00,CLR,,0.00,WeatherDisplay:10.37,2013-01-17 14:20:00,
2013-01-17 08:25:00,39.9,10.2,30.39,NNW,338,4.6,6.0,29,0.00,CLR,,0.00,WeatherDisplay:10.37,2013-01-17 14:25:00,
2013-01-17 08:30:00,40.6,10.0,30.42,NNW,338,4.6,6.0,28,0.00,CLR,,0.00,WeatherDisplay:10.37,2013-01-17 14:30:00,
2013-01-17 08:35:00,41.0,6.0,30.42,NNW,338,4.7,6.0,23,0.00,CLR,,0.00,WeatherDisplay:10.37,2013-01-17 14:35:00,
2013-01-17 08:40:00,41.5,6.4,30.42,NNW,338,4.6,6.0,23,0.00,CLR,,0.00,WeatherDisplay:10.37,2013-01-17 14:40:00,
2013-01-17 08:45:00,41.9,4.7,30.42,NNW,338,4.6,6.0,21,0.00,CLR,,0.00,WeatherDisplay:10.37,2013-01-17 14:45:00,
2013-01-17 08:50:00,42.6,5.3,30.42,NNW,338,4.7,6.0,21,0.00,CLR,,0.00,WeatherDisplay:10.37,2013-01-17 14:50:00,
2013-01-17 08:55:00,43.2,4.7,30.42,NNW,338,4.6,6.0,20,0.00,CLR,,0.00,WeatherDisplay:10.37,2013-01-17 14:55:00,
2013-01-17 09:00:00,43.3,4.9,30.42,NNW,338,4.6,6.0,20,0.00,CLR,,0.00,WeatherDisplay:10.37,2013-01-17 15:00:00,
2013-01-17 09:05:00,43.9,5.3,30.42,NNW,338,4.6,6.0,20,0.00,CLR,,0.00,WeatherDisplay:10.37,2013-01-17 15:05:00,
2013-01-17 09:10:00,45.0,6.2,30.42,NNW,338,4.6,6.0,20,0.00,CLR,,0.00,WeatherDisplay:10.37,2013-01-17 15:10:00,
2013-01-17 09:16:00,45.9,7.0,30.42,NNW,338,4.7,6.0,20,0.00,CLR,,0.00,WeatherDisplay:10.37,2013-01-17 15:16:00,
2013-01-17 09:21:00,46.4,6.3,30.42,NNW,338,4.6,6.0,19,0.00,CLR,,0.00,WeatherDisplay:10.37,2013-01-17 15:21:00,
2013-01-17 09:26:00,47.1,6.9,30.44,NNW,338,4.6,6.0,19,0.00,CLR,,0.00,WeatherDisplay:10.37,2013-01-17 15:26:00,
2013-01-17 09:31:00,47.3,7.0,30.44,NNW,338,4.7,6.0,19,0.00,CLR,,0.00,WeatherDisplay:10.37,2013-01-17 15:31:00,
2013-01-17 09:36:00,47.8,7.5,30.44,NNW,338,4.7,6.0,19,0.00,CLR,,0.00,WeatherDisplay:10.37,2013-01-17 15:36:00,
2013-01-17 09:41:00,48.2,7.8,30.44,NNW,338,4.6,6.0,19,0.00,CLR,,0.00,WeatherDisplay:10.37,2013-01-17 15:41:00,
2013-01-17 09:46:00,48.9,8.4,30.44,NNW,338,4.7,6.0,19,0.00,CLR,,0.00,WeatherDisplay:10.37,2013-01-17 15:46:00,
2013-01-17 09:51:00,48.9,8.4,30.44,NNW,338,4.7,6.0,19,0.00,CLR,,0.00,WeatherDisplay:10.37,2013-01-17 15:51:00,
2013-01-17 09:56:00,50.0,9.3,30.44,NNW,338,4.6,6.0,19,0.00,CLR,,0.00,WeatherDisplay:10.37,2013-01-17 15:56:00,
2013-01-17 10:01:00,50.5,9.7,30.44,NNW,338,4.6,6.0,19,0.00,CLR,,0.00,WeatherDisplay:10.37,2013-01-17 16:01:00,
2013-01-17 10:06:00,50.9,10.0,30.44,NNW,338,4.7,6.0,19,0.00,CLR,,0.00,WeatherDisplay:10.37,2013-01-17 16:06:00,
2013-01-17 10:11:00,51.1,10.2,30.44,NNW,338,4.6,6.0,19,0.00,CLR,,0.00,WeatherDisplay:10.37,2013-01-17 16:11:00,
2013-01-17 10:16:00,51.4,10.5,30.44,NNW,338,4.7,6.0,19,0.00,CLR,,0.00,WeatherDisplay:10.37,2013-01-17 16:16:00,
2013-01-17 10:21:00,51.6,10.6,30.44,NNW,338,4.6,6.0,19,0.00,CLR,,0.00,WeatherDisplay:10.37,2013-01-17 16:21:00,
2013-01-17 10:26:00,51.8,9.6,30.44,NNW,338,4.6,6.0,18,0.00,CLR,,0.00,WeatherDisplay:10.37,2013-01-17 16:26:00,
2013-01-17 10:31:00,52.7,10.3,30.44,NNW,338,4.7,6.0,18,0.00,CLR,,0.00,WeatherDisplay:10.37,2013-01-17 16:31:00,
2013-01-17 10:36:00,53.4,10.9,30.44,NNW,338,4.6,6.0,18,0.00,CLR,,0.00,WeatherDisplay:10.37,2013-01-17 16:36:00,
2013-01-17 10:41:00,54.0,11.3,30.44,NNW,338,4.6,6.0,18,0.00,CLR,,0.00,WeatherDisplay:10.37,2013-01-17 16:41:00,
2013-01-17 10:46:00,54.3,11.6,30.44,NNW,338,4.6,6.0,18,0.00,CLR,,0.00,WeatherDisplay:10.37,2013-01-17 16:46:00,
2013-01-17 10:51:00,54.5,11.8,30.44,NNW,338,4.6,6.0,18,0.00,CLR,,0.00,WeatherDisplay:10.37,2013-01-17 16:51:00,
2013-01-17 10:56:00,54.5,11.8,30.44,NNW,338,4.7,6.0,18,0.00,CLR,,0.00,WeatherDisplay:10.37,2013-01-17 16:56:00,
2013-01-17 11:01:00,54.5,11.8,30.44,NNW,338,4.6,6.0,18,0.00,CLR,,0.00,WeatherDisplay:10.37,2013-01-17 17:01:00,
2013-01-17 11:06:00,55.4,11.2,30.44,NNW,338,4.6,6.0,17,0.00,CLR,,0.00,WeatherDisplay:10.37,2013-01-17 17:06:00,
2013-01-17 11:11:00,55.6,11.4,30.42,NNW,338,4.6,6.0,17,0.00,CLR,,0.00,WeatherDisplay:10.37,2013-01-17 17:11:00,
2013-01-17 11:16:00,55.2,12.4,30.42,NNW,338,4.6,6.0,18,0.00,CLR,,0.00,WeatherDisplay:10.37,2013-01-17 17:16:00,
2013-01-17 11:21:00,55.2,12.4,30.42,NNW,338,4.6,6.0,18,0.00,CLR,,0.00,WeatherDisplay:10.37,2013-01-17 17:21:00,
2013-01-17 11:26:00,55.4,11.2,30.42,NNW,338,4.7,6.0,17,0.00,CLR,,0.00,WeatherDisplay:10.37,2013-01-17 17:26:00,
2013-01-17 11:31:00,56.1,11.8,30.42,NNW,338,4.7,6.0,17,0.00,CLR,,0.00,WeatherDisplay:10.37,2013-01-17 17:31:00,
2013-01-17 11:36:00,56.5,12.1,30.42,NNW,338,4.6,6.0,17,0.00,CLR,,0.00,WeatherDisplay:10.37,2013-01-17 17:36:00,
2013-01-17 11:41:00,56.7,12.3,30.42,NNW,338,4.6,6.0,17,0.00,CLR,,0.00,WeatherDisplay:10.37,2013-01-17 17:41:00,
2013-01-17 11:46:00,57.6,13.0,30.42,NNW,338,4.6,6.0,17,0.00,CLR,,0.00,WeatherDisplay:10.37,2013-01-17 17:46:00,
2013-01-17 11:51:00,57.6,13.0,30.42,NNW,338,4.6,6.0,17,0.00,CLR,,0.00,WeatherDisplay:10.37,2013-01-17 17:51:00,
2013-01-17 11:56:00,57.2,12.7,30.39,NNW,338,4.7,6.0,17,0.00,CLR,,0.00,WeatherDisplay:10.37,2013-01-17 17:56:00,
2013-01-17 12:01:00,57.6,13.0,30.39,NNW,338,4.6,6.0,17,0.00,CLR,,0.00,WeatherDisplay:10.37,2013-01-17 18:01:00,
2013-01-17 12:06:00,58.8,14.0,30.39,NNW,338,4.6,6.0,17,0.00,CLR,,0.00,WeatherDisplay:10.37,2013-01-17 18:06:00,
2013-01-17 12:11:00,59.5,14.6,30.39,NNW,338,4.7,6.0,17,0.00,CLR,,0.00,WeatherDisplay:10.37,2013-01-17 18:11:00,
2013-01-17 12:16:00,59.4,14.5,30.39,NNW,338,4.7,6.0,17,0.00,CLR,,0.00,WeatherDisplay:10.37,2013-01-17 18:16:00,
2013-01-17 12:21:00,59.5,14.6,30.39,NNW,338,4.6,6.0,17,0.00,CLR,,0.00,WeatherDisplay:10.37,2013-01-17 18:21:00,
2013-01-17 12:26:00,59.4,14.5,30.39,NNW,338,4.6,6.0,17,0.00,CLR,,0.00,WeatherDisplay:10.37,2013-01-17 18:26:00,
2013-01-17 12:31:00,59.0,14.2,30.39,NNW,338,4.7,6.0,17,0.00,CLR,,0.00,WeatherDisplay:10.37,2013-01-17 18:31:00,
2013-01-17 12:36:00,58.8,14.0,30.39,NNW,338,4.7,6.0,17,0.00,CLR,,0.00,WeatherDisplay:10.37,2013-01-17 18:36:00,
2013-01-17 12:41:00,59.7,14.8,30.39,NNW,338,4.7,6.0,17,0.00,CLR,,0.00,WeatherDisplay:10.37,2013-01-17 18:41:00,
2013-01-17 12:46:00,60.4,15.4,30.39,NNW,338,4.6,6.0,17,0.00,CLR,,0.00,WeatherDisplay:10.37,2013-01-17 18:46:00,
2013-01-17 12:51:00,60.3,15.2,30.39,NNW,338,4.6,6.0,17,0.00,CLR,,0.00,WeatherDisplay:10.37,2013-01-17 18:51:00,
2013-01-17 12:56:00,60.1,15.1,30.36,NNW,338,4.6,6.0,17,0.00,CLR,,0.00,WeatherDisplay:10.37,2013-01-17 18:56:00,
2013-01-17 13:01:00,60.3,15.2,30.36,NNW,338,4.6,6.0,17,0.00,CLR,,0.00,WeatherDisplay:10.37,2013-01-17 19:01:00,
2013-01-17 13:06:00,61.0,14.4,30.36,NNW,338,4.6,6.0,16,0.00,CLR,,0.00,WeatherDisplay:10.37,2013-01-17 19:06:00,
2013-01-17 13:11:00,61.3,14.7,30.36,NNW,338,4.6,6.0,16,0.00,CLR,,0.00,WeatherDisplay:10.37,2013-01-17 19:11:00,
2013-01-17 13:16:00,61.3,14.7,30.36,NNW,338,4.6,6.0,16,0.00,CLR,,0.00,WeatherDisplay:10.37,2013-01-17 19:16:00,
2013-01-17 13:21:00,62.2,15.4,30.36,NNW,338,4.6,6.0,16,0.00,CLR,,0.00,WeatherDisplay:10.37,2013-01-17 19:21:00,
2013-01-17 13:26:00,62.4,15.6,30.36,NNW,338,4.7,6.0,16,0.00,CLR,,0.00,WeatherDisplay:10.37,2013-01-17 19:26:00,
2013-01-17 13:31:00,63.0,16.0,30.36,NNW,338,4.6,6.0,16,0.00,CLR,,0.00,WeatherDisplay:10.37,2013-01-17 19:31:00,
2013-01-17 13:36:00,62.6,15.7,30.36,NNW,338,4.6,6.0,16,0.00,CLR,,0.00,WeatherDisplay:10.37,2013-01-17 19:36:00,
2013-01-17 13:41:00,62.4,15.6,30.33,NNW,338,4.6,6.0,16,0.00,CLR,,0.00,WeatherDisplay:10.37,2013-01-17 19:41:00,
2013-01-17 13:46:00,61.9,15.1,30.33,NNW,338,4.6,6.0,16,0.00,CLR,,0.00,WeatherDisplay:10.37,2013-01-17 19:46:00,
2013-01-17 13:51:00,63.5,16.4,30.33,NNW,338,4.7,6.0,16,0.00,CLR,,0.00,WeatherDisplay:10.37,2013-01-17 19:51:00,
2013-01-17 13:56:00,62.8,15.9,30.33,NNW,338,4.6,6.0,16,0.00,CLR,,0.00,WeatherDisplay:10.37,2013-01-17 19:56:00,
2013-01-17 14:01:00,62.2,15.4,30.33,NNW,338,4.6,6.0,16,0.00,CLR,,0.00,WeatherDisplay:10.37,2013-01-17 20:01:00,
2013-01-17 14:06:00,63.0,16.0,30.33,NNW,338,4.6,6.0,16,0.00,CLR,,0.00,WeatherDisplay:10.37,2013-01-17 20:06:00,
2013-01-17 14:11:00,63.5,16.4,30.33,NNW,338,4.7,6.0,16,0.00,CLR,,0.00,WeatherDisplay:10.37,2013-01-17 20:11:00,
2013-01-17 14:16:00,62.8,15.9,30.33,NNW,338,4.7,6.0,16,0.00,CLR,,0.00,WeatherDisplay:10.37,2013-01-17 20:16:00,
2013-01-17 14:21:00,63.3,16.3,30.33,NNW,338,4.7,6.0,16,0.00,CLR,,0.00,WeatherDisplay:10.37,2013-01-17 20:21:00,
2013-01-17 14:26:00,63.9,16.7,30.30,NNW,338,4.6,6.0,16,0.00,CLR,,0.00,WeatherDisplay:10.37,2013-01-17 20:26:00,
2013-01-17 14:31:00,64.2,17.0,30.30,NNW,338,4.6,6.0,16,0.00,CLR,,0.00,WeatherDisplay:10.37,2013-01-17 20:31:00,
2013-01-17 14:36:00,64.6,15.8,30.30,NNW,338,4.6,6.0,15,0.00,CLR,,0.00,WeatherDisplay:10.37,2013-01-17 20:36:00,
2013-01-17 14:41:00,64.8,16.0,30.33,NNW,338,4.6,6.0,15,0.00,CLR,,0.00,WeatherDisplay:10.37,2013-01-17 20:41:00,
2013-01-17 14:46:00,65.5,16.5,30.33,NNW,338,4.6,6.0,15,0.00,CLR,,0.00,WeatherDisplay:10.37,2013-01-17 20:46:00,
2013-01-17 14:51:00,65.7,16.7,30.33,NNW,338,4.6,6.0,15,0.00,CLR,,0.00,WeatherDisplay:10.37,2013-01-17 20:51:00,
2013-01-17 14:56:00,65.5,16.5,30.33,NNW,338,4.6,6.0,15,0.00,CLR,,0.00,WeatherDisplay:10.37,2013-01-17 20:56:00,
2013-01-17 15:01:00,65.7,16.7,30.33,NNW,338,4.7,6.0,15,0.00,CLR,,0.00,WeatherDisplay:10.37,2013-01-17 21:01:00,
2013-01-17 15:06:00,65.8,16.8,30.33,NNW,338,4.7,6.0,15,0.00,CLR,,0.00,WeatherDisplay:10.37,2013-01-17 21:06:00,
2013-01-17 15:11:00,64.2,17.0,30.33,NNW,338,4.6,6.0,16,0.00,CLR,,0.00,WeatherDisplay:10.37,2013-01-17 21:11:00,
2013-01-17 15:16:00,63.9,16.7,30.33,NNW,338,4.6,6.0,16,0.00,CLR,,0.00,WeatherDisplay:10.37,2013-01-17 21:16:00,
2013-01-17 15:21:00,64.2,17.0,30.33,NNW,338,4.7,6.0,16,0.00,CLR,,0.00,WeatherDisplay:10.37,2013-01-17 21:21:00,
2013-01-17 15:26:00,64.6,15.8,30.33,NNW,338,4.6,6.0,15,0.00,CLR,,0.00,WeatherDisplay:10.37,2013-01-17 21:26:00,
2013-01-17 15:31:00,64.2,17.0,30.33,NNW,338,4.7,6.0,16,0.00,CLR,,0.00,WeatherDisplay:10.37,2013-01-17 21:31:00,
2013-01-17 15:36:00,64.4,15.7,30.33,NNW,338,4.6,6.0,15,0.00,CLR,,0.00,WeatherDisplay:10.37,2013-01-17 21:36:00,
2013-01-17 15:42:00,65.5,16.5,30.33,NNW,338,4.6,6.0,15,0.00,CLR,,0.00,WeatherDisplay:10.37,2013-01-17 21:42:00,
2013-01-17 15:47:00,64.9,16.1,30.33,NNW,338,4.7,6.0,15,0.00,CLR,,0.00,WeatherDisplay:10.37,2013-01-17 21:47:00,
2013-01-17 15:52:00,65.1,16.3,30.33,NNW,338,4.6,6.0,15,0.00,CLR,,0.00,WeatherDisplay:10.37,2013-01-17 21:52:00,
2013-01-17 15:57:00,65.1,16.3,30.36,NNW,338,4.6,6.0,15,0.00,CLR,,0.00,WeatherDisplay:10.37,2013-01-17 21:57:00,
2013-01-17 16:02:00,64.9,16.1,30.36,NNW,338,4.6,6.0,15,0.00,CLR,,0.00,WeatherDisplay:10.37,2013-01-17 22:02:00,
2013-01-17 16:07:00,65.3,16.4,30.36,NNW,338,4.7,6.0,15,0.00,CLR,,0.00,WeatherDisplay:10.37,2013-01-17 22:07:00,
2013-01-17 16:12:00,64.9,16.1,30.39,NNW,338,4.6,6.0,15,0.00,CLR,,0.00,WeatherDisplay:10.37,2013-01-17 22:12:00,
2013-01-17 16:17:00,65.7,16.7,30.39,NNW,338,4.7,6.0,15,0.00,CLR,,0.00,WeatherDisplay:10.37,2013-01-17 22:17:00,
2013-01-17 16:22:00,65.8,16.8,30.39,NNW,338,4.6,6.0,15,0.00,CLR,,0.00,WeatherDisplay:10.37,2013-01-17 22:22:00,
2013-01-17 16:27:00,66.0,17.0,30.39,NNW,338,4.6,6.0,15,0.00,CLR,,0.00,WeatherDisplay:10.37,2013-01-17 22:27:00,
2013-01-17 16:32:00,65.3,16.4,30.39,NNW,338,4.6,6.0,15,0.00,CLR,,0.00,WeatherDisplay:10.37,2013-01-17 22:32:00,
2013-01-17 16:37:00,64.4,15.7,30.39,NNW,338,4.7,6.0,15,0.00,CLR,,0.00,WeatherDisplay:10.37,2013-01-17 22:37:00,
2013-01-17 16:42:00,64.2,17.0,30.39,NNW,338,4.7,6.0,16,0.00,CLR,,0.00,WeatherDisplay:10.37,2013-01-17 22:42:00,
2013-01-17 16:47:00,63.5,16.4,30.39,NNW,338,4.7,6.0,16,0.00,CLR,,0.00,WeatherDisplay:10.37,2013-01-17 22:47:00,
2013-01-17 16:52:00,64.6,15.8,30.39,NNW,338,4.6,6.0,15,0.00,CLR,,0.00,WeatherDisplay:10.37,2013-01-17 22:52:00,
2013-01-17 16:57:00,63.9,16.7,30.39,NNW,338,4.6,6.0,16,0.00,CLR,,0.00,WeatherDisplay:10.37,2013-01-17 22:57:00,
2013-01-17 17:02:00,63.3,16.3,30.39,NNW,338,4.7,6.0,16,0.00,CLR,,0.00,WeatherDisplay:10.37,2013-01-17 23:02:00,
2013-01-17 17:07:00,63.1,16.2,30.39,NNW,338,4.6,6.0,16,0.00,CLR,,0.00,WeatherDisplay:10.37,2013-01-17 23:07:00,
2013-01-17 17:12:00,59.7,14.8,30.39,NNW,338,4.6,6.0,17,0.00,CLR,,0.00,WeatherDisplay:10.37,2013-01-17 23:12:00,
2013-01-17 17:17:00,57.9,13.3,30.39,NNW,338,4.7,6.0,17,0.00,CLR,,0.00,WeatherDisplay:10.37,2013-01-17 23:17:00,
2013-01-17 17:22:00,57.0,12.6,30.39,NNW,338,4.7,6.0,17,0.00,CLR,,0.00,WeatherDisplay:10.37,2013-01-17 23:22:00,
2013-01-17 17:27:00,56.1,11.8,30.36,NNW,338,4.7,6.0,17,0.00,CLR,,0.00,WeatherDisplay:10.37,2013-01-17 23:27:00,
2013-01-17 17:32:00,55.2,12.4,30.36,NNW,338,4.6,6.0,18,0.00,CLR,,0.00,WeatherDisplay:10.37,2013-01-17 23:32:00,
2013-01-17 17:37:00,54.5,11.8,30.36,NNW,338,4.7,6.0,18,0.00,CLR,,0.00,WeatherDisplay:10.37,2013-01-17 23:37:00,
2013-01-17 17:42:00,54.0,11.3,30.39,NNW,338,4.6,6.0,18,0.00,CLR,,0.00,WeatherDisplay:10.37,2013-01-17 23:42:00,
2013-01-17 17:47:00,53.2,10.8,30.39,NNW,338,4.7,6.0,18,0.00,CLR,,0.00,WeatherDisplay:10.37,2013-01-17 23:47:00,
2013-01-17 17:52:00,52.9,10.5,30.39,NNW,338,4.6,6.0,18,0.00,CLR,,0.00,WeatherDisplay:10.37,2013-01-17 23:52:00,
2013-01-17 17:57:00,52.2,9.9,30.42,NNW,338,4.6,6.0,18,0.00,CLR,,0.00,WeatherDisplay:10.37,2013-01-17 23:57:00,
2013-01-17 18:02:00,51.8,9.6,30.42,NNW,338,4.7,6.0,18,0.00,CLR,,0.00,WeatherDisplay:10.37,2013-01-18 00:02:00,
2013-01-17 18:07:00,51.6,10.6,30.42,NNW,338,4.6,6.0,19,0.00,CLR,,0.00,WeatherDisplay:10.37,2013-01-18 00:07:00,
2013-01-17 18:12:00,51.6,10.6,30.42,NNW,338,4.6,6.0,19,0.00,CLR,,0.00,WeatherDisplay:10.37,2013-01-18 00:12:00,
2013-01-17 18:17:00,51.3,10.3,30.42,NNW,338,4.6,6.0,19,0.00,CLR,,0.00,WeatherDisplay:10.37,2013-01-18 00:17:00,
2013-01-17 18:22:00,50.9,10.0,30.42,NNW,338,4.6,6.0,19,0.00,CLR,,0.00,WeatherDisplay:10.37,2013-01-18 00:22:00,
2013-01-17 18:27:00,50.7,9.9,30.42,NNW,338,4.6,6.0,19,0.00,CLR,,0.00,WeatherDisplay:10.37,2013-01-18 00:27:00,
2013-01-17 18:32:00,50.5,9.7,30.42,NNW,338,4.6,6.0,19,0.00,CLR,,0.00,WeatherDisplay:10.37,2013-01-18 00:32:00,
2013-01-17 18:37:00,50.2,9.4,30.42,NNW,338,4.6,6.0,19,0.00,CLR,,0.00,WeatherDisplay:10.37,2013-01-18 00:37:00,
2013-01-17 18:42:00,49.6,9.0,30.42,NNW,338,4.6,6.0,19,0.00,CLR,,0.00,WeatherDisplay:10.37,2013-01-18 00:42:00,
2013-01-17 18:47:00,49.3,8.7,30.42,NNW,338,4.7,6.0,19,0.00,CLR,,0.00,WeatherDisplay:10.37,2013-01-18 00:47:00,
2013-01-17 18:52:00,48.9,8.4,30.42,NNW,338,4.7,6.0,19,0.00,CLR,,0.00,WeatherDisplay:10.37,2013-01-18 00:52:00,
2013-01-17 18:57:00,48.9,8.4,30.44,NNW,338,4.6,6.0,19,0.00,CLR,,0.00,WeatherDisplay:10.37,2013-01-18 00:57:00,
2013-01-17 19:02:00,48.6,8.1,30.44,NNW,338,4.6,6.0,19,0.00,CLR,,0.00,WeatherDisplay:10.37,2013-01-18 01:02:00,
2013-01-17 19:07:00,48.2,7.8,30.44,NNW,338,4.6,6.0,19,0.00,CLR,,0.00,WeatherDisplay:10.37,2013-01-18 01:07:00,
2013-01-17 19:12:00,47.8,7.5,30.44,NNW,338,4.6,6.0,19,0.00,CLR,,0.00,WeatherDisplay:10.37,2013-01-18 01:12:00,
2013-01-17 19:17:00,47.5,7.2,30.44,NNW,338,4.7,6.0,19,0.00,CLR,,0.00,WeatherDisplay:10.37,2013-01-18 01:17:00,
2013-01-17 19:22:00,47.3,7.0,30.44,NNW,338,4.7,6.0,19,0.00,CLR,,0.00,WeatherDisplay:10.37,2013-01-18 01:22:00,
2013-01-17 19:27:00,47.3,7.0,30.44,NNW,338,4.6,6.0,19,0.00,CLR,,0.00,WeatherDisplay:10.37,2013-01-18 01:27:00,
2013-01-17 19:32:00,47.3,7.0,30.44,NNW,338,4.7,6.0,19,0.00,CLR,,0.00,WeatherDisplay:10.37,2013-01-18 01:32:00,
2013-01-17 19:37:00,47.3,7.0,30.44,NNW,338,4.6,6.0,19,0.00,CLR,,0.00,WeatherDisplay:10.37,2013-01-18 01:37:00,
2013-01-17 19:42:00,47.3,7.0,30.42,NNW,338,4.6,6.0,19,0.00,CLR,,0.00,WeatherDisplay:10.37,2013-01-18 01:42:00,
2013-01-17 19:47:00,47.1,6.9,30.42,NNW,338,4.6,6.0,19,0.00,CLR,,0.00,WeatherDisplay:10.37,2013-01-18 01:47:00,
2013-01-17 19:52:00,46.4,6.3,30.42,NNW,338,4.7,6.0,19,0.00,CLR,,0.00,WeatherDisplay:10.37,2013-01-18 01:52:00,
2013-01-17 19:58:00,46.2,7.3,30.42,NNW,338,4.7,6.0,20,0.00,CLR,,0.00,WeatherDisplay:10.37,2013-01-18 01:58:00,
2013-01-17 20:03:00,45.3,6.5,30.42,NNW,338,4.6,6.0,20,0.00,CLR,,0.00,WeatherDisplay:10.37,2013-01-18 02:03:00,
2013-01-17 20:08:00,44.2,5.6,30.42,NNW,338,4.6,6.0,20,0.00,CLR,,0.00,WeatherDisplay:10.37,2013-01-18 02:08:00,
2013-01-17 20:13:00,43.7,5.2,30.44,NNW,338,4.7,6.0,20,0.00,CLR,,0.00,WeatherDisplay:10.37,2013-01-18 02:13:00,
2013-01-17 20:18:00,43.5,5.0,30.44,NNW,338,4.7,6.0,20,0.00,CLR,,0.00,WeatherDisplay:10.37,2013-01-18 02:18:00,
2013-01-17 20:23:00,42.8,4.4,30.44,NNW,338,4.6,6.0,20,0.00,CLR,,0.00,WeatherDisplay:10.37,2013-01-18 02:23:00,
2013-01-17 20:28:00,42.1,4.9,30.48,NNW,338,4.6,6.0,21,0.00,CLR,,0.00,WeatherDisplay:10.37,2013-01-18 02:28:00,
2013-01-17 20:33:00,41.5,4.4,30.48,NNW,338,4.6,6.0,21,0.00,CLR,,0.00,WeatherDisplay:10.37,2013-01-18 02:33:00,
2013-01-17 20:38:00,41.2,4.1,30.48,NNW,338,4.7,6.0,21,0.00,CLR,,0.00,WeatherDisplay:10.37,2013-01-18 02:38:00,
2013-01-17 20:43:00,40.8,3.8,30.48,NNW,338,4.6,6.0,21,0.00,CLR,,0.00,WeatherDisplay:10.37,2013-01-18 02:43:00,
2013-01-17 20:48:00,40.3,3.4,30.48,NNW,338,4.7,6.0,21,0.00,CLR,,0.00,WeatherDisplay:10.37,2013-01-18 02:48:00,
2013-01-17 20:53:00,39.9,3.1,30.48,NNW,338,4.6,6.0,21,0.00,CLR,,0.00,WeatherDisplay:10.37,2013-01-18 02:53:00,
2013-01-17 20:58:00,39.9,3.1,30.48,NNW,338,4.6,6.0,21,0.00,CLR,,0.00,WeatherDisplay:10.37,2013-01-18 02:58:00,
2013-01-17 21:03:00,39.6,2.8,30.48,NNW,338,4.6,6.0,21,0.00,CLR,,0.00,WeatherDisplay:10.37,2013-01-18 03:03:00,
2013-01-17 21:08:00,39.2,2.5,30.48,NNW,338,4.7,6.0,21,0.00,CLR,,0.00,WeatherDisplay:10.37,2013-01-18 03:08:00,
2013-01-17 21:13:00,38.8,2.2,30.48,NNW,338,4.7,6.0,21,0.00,CLR,,0.00,WeatherDisplay:10.37,2013-01-18 03:13:00,
2013-01-17 21:18:00,38.7,2.0,30.48,NNW,338,4.7,6.0,21,0.00,CLR,,0.00,WeatherDisplay:10.37,2013-01-18 03:18:00,
2013-01-17 21:23:00,38.5,1.9,30.48,NNW,338,4.6,6.0,21,0.00,CLR,,0.00,WeatherDisplay:10.37,2013-01-18 03:23:00,
2013-01-17 21:28:00,38.3,1.7,30.50,NNW,338,4.7,6.0,21,0.00,CLR,,0.00,WeatherDisplay:10.37,2013-01-18 03:28:00,
2013-01-17 21:33:00,38.5,1.9,30.50,NNW,338,4.7,6.0,21,0.00,CLR,,0.00,WeatherDisplay:10.37,2013-01-18 03:33:00,
2013-01-17 21:38:00,38.5,1.9,30.50,NNW,338,4.6,6.0,21,0.00,CLR,,0.00,WeatherDisplay:10.37,2013-01-18 03:38:00,
2013-01-17 21:43:00,38.3,1.7,30.50,NNW,338,4.7,6.0,21,0.00,CLR,,0.00,WeatherDisplay:10.37,2013-01-18 03:43:00,
2013-01-17 21:48:00,38.1,1.6,30.50,NNW,338,4.6,6.0,21,0.00,CLR,,0.00,WeatherDisplay:10.37,2013-01-18 03:48:00,
2013-01-17 21:53:00,38.5,1.9,30.50,NNW,338,4.6,6.0,21,0.00,CLR,,0.00,WeatherDisplay:10.37,2013-01-18 03:53:00,
2013-01-17 21:58:00,38.1,1.6,30.50,NNW,338,4.7,6.0,21,0.00,CLR,,0.00,WeatherDisplay:10.37,2013-01-18 03:58:00,
2013-01-17 22:03:00,37.9,1.4,30.50,NNW,338,4.7,6.0,21,0.00,CLR,,0.00,WeatherDisplay:10.37,2013-01-18 04:03:00,
2013-01-17 22:08:00,37.8,1.2,30.50,NNW,338,4.6,6.0,21,0.00,CLR,,0.00,WeatherDisplay:10.37,2013-01-18 04:08:00,
2013-01-17 22:13:00,37.6,1.1,30.50,NNW,338,4.7,6.0,21,0.00,CLR,,0.00,WeatherDisplay:10.37,2013-01-18 04:13:00,
2013-01-17 22:18:00,37.4,3.8,30.50,NNW,338,4.6,6.0,24,0.00,CLR,,0.00,WeatherDisplay:10.37,2013-01-18 04:18:00,
2013-01-17 22:23:00,37.0,3.5,30.50,NNW,338,4.6,6.0,24,0.00,CLR,,0.00,WeatherDisplay:10.37,2013-01-18 04:23:00,
2013-01-17 22:28:00,36.9,3.4,30.50,NNW,338,4.6,6.0,24,0.00,CLR,,0.00,WeatherDisplay:10.37,2013-01-18 04:28:00,
2013-01-17 22:33:00,37.0,3.5,30.50,NNW,338,4.7,6.0,24,0.00,CLR,,0.00,WeatherDisplay:10.37,2013-01-18 04:33:00,
2013-01-17 22:38:00,37.0,3.5,30.50,NNW,338,4.6,6.0,24,0.00,CLR,,0.00,WeatherDisplay:10.37,2013-01-18 04:38:00,
2013-01-17 22:43:00,37.2,6.2,30.50,NNW,338,4.6,6.0,27,0.00,CLR,,0.00,WeatherDisplay:10.37,2013-01-18 04:43:00,
2013-01-17 22:48:00,37.4,8.0,30.50,NNW,338,4.6,6.0,29,0.00,CLR,,0.00,WeatherDisplay:10.37,2013-01-18 04:48:00,
2013-01-17 22:53:00,37.6,8.1,30.50,NNW,338,4.7,6.0,29,0.00,CLR,,0.00,WeatherDisplay:10.37,2013-01-18 04:53:00,
2013-01-17 22:58:00,37.0,7.7,30.48,NNW,338,4.7,6.0,29,0.00,CLR,,0.00,WeatherDisplay:10.37,2013-01-18 04:58:00,
2013-01-17 23:03:00,36.9,7.5,30.48,NNW,338,4.6,6.0,29,0.00,CLR,,0.00,WeatherDisplay:10.37,2013-01-18 05:03:00,
2013-01-17 23:08:00,36.5,7.2,30.48,NNW,338,4.7,6.0,29,0.00,CLR,,0.00,WeatherDisplay:10.37,2013-01-18 05:08:00,
2013-01-17 23:13:00,36.5,8.0,30.48,NNW,338,4.6,6.0,30,0.00,CLR,,0.00,WeatherDisplay:10.37,2013-01-18 05:13:00,
2013-01-17 23:18:00,36.1,6.9,30.48,NNW,338,4.6,6.0,29,0.00,CLR,,0.00,WeatherDisplay:10.37,2013-01-18 05:18:00,
2013-01-17 23:23:00,36.1,7.6,30.48,NNW,338,4.6,6.0,30,0.00,CLR,,0.00,WeatherDisplay:10.37,2013-01-18 05:23:00,
2013-01-17 23:28:00,36.0,7.5,30.48,NNW,338,4.7,6.0,30,0.00,CLR,,0.00,WeatherDisplay:10.37,2013-01-18 05:28:00,
2013-01-17 23:34:00,36.3,7.8,30.48,NNW,338,4.7,6.0,30,0.00,CLR,,0.00,WeatherDisplay:10.37,2013-01-18 05:34:00,
2013-01-17 23:39:00,36.3,7.8,30.48,NNW,338,4.6,6.0,30,0.00,CLR,,0.00,WeatherDisplay:10.37,2013-01-18 05:39:00,
2013-01-17 23:44:00,36.5,8.0,30.50,NNW,338,4.7,6.0,30,0.00,CLR,,0.00,WeatherDisplay:10.37,2013-01-18 05:44:00,
2013-01-17 23:49:00,36.3,7.8,30.50,NNW,338,4.6,6.0,30,0.00,CLR,,0.00,WeatherDisplay:10.37,2013-01-18 05:49:00,
2013-01-17 23:54:00,36.0,7.5,30.50,NNW,338,4.6,6.0,30,0.00,CLR,,0.00,WeatherDisplay:10.37,2013-01-18 05:54:00,
2013-01-17 23:59:00,35.8,7.3,30.50,NNW,338,4.6,6.0,30,0.00,CLR,,0.00,WeatherDisplay:10.37,2013-01-18 05:59:00,